createdAt,value
2022-07-31T00:02:09.164Z,10.43
2022-07-31T00:04:36.328Z,11.13
2022-07-31T00:07:03.852Z,21.83
2022-07-31T00:09:53.241Z,11.53
2022-07-31T00:12:18.426Z,12.30
2022-07-31T00:14:45.905Z,12.53
2022-07-31T00:17:13.014Z,12.30
2022-07-31T00:19:41.589Z,10.27
2022-07-31T00:22:10.781Z,10.50
2022-07-31T00:24:37.939Z,12.93
2022-07-31T00:27:05.721Z,13.60
2022-07-31T00:29:33.172Z,13.37
2022-07-31T00:32:00.330Z,14.43
2022-07-31T00:34:27.444Z,11.10
2022-07-31T00:36:54.557Z,12.97
2022-07-31T00:39:21.658Z,12.77
2022-07-31T00:41:49.567Z,12.47
2022-07-31T00:44:16.731Z,14.17
2022-07-31T00:46:45.573Z,12.20
2022-07-31T00:49:12.789Z,13.53
2022-07-31T00:51:40.753Z,12.67
2022-07-31T00:54:08.607Z,12.23
2022-07-31T00:56:35.987Z,12.67
2022-07-31T00:59:03.161Z,10.90
2022-07-31T01:01:30.871Z,13.40
2022-07-31T01:03:58.195Z,15.20
2022-07-31T01:06:25.343Z,16.60
2022-07-31T01:08:52.511Z,12.30
2022-07-31T01:11:23.241Z,12.03
2022-07-31T01:13:50.709Z,13.47
2022-07-31T01:16:18.876Z,12.80
2022-07-31T01:18:46.997Z,12.67
2022-07-31T01:21:28.473Z,11.23
2022-07-31T01:24:15.959Z,14.67
2022-07-31T01:26:43.044Z,12.90
2022-07-31T01:29:13.012Z,12.53
2022-07-31T01:31:42.516Z,13.97
2022-07-31T01:34:12.876Z,14.63
2022-07-31T01:36:42.742Z,12.10
2022-07-31T01:39:10.652Z,13.87
2022-07-31T01:41:44.095Z,14.03
2022-07-31T01:44:14.222Z,13.70
2022-07-31T01:46:42.819Z,14.20
2022-07-31T01:49:10.883Z,13.17
2022-07-31T01:51:39.140Z,12.63
2022-07-31T01:54:06.501Z,12.70
2022-07-31T01:56:34.671Z,12.63
2022-07-31T01:59:02.684Z,13.13
2022-07-31T02:01:30.830Z,14.60
2022-07-31T02:04:00.614Z,13.77
2022-07-31T02:06:28.796Z,15.63
2022-07-31T02:08:56.292Z,14.23
2022-07-31T02:11:23.685Z,13.00
2022-07-31T02:13:51.579Z,15.00
2022-07-31T02:16:19.427Z,15.47
2022-07-31T02:18:51.745Z,14.07
2022-07-31T02:21:18.917Z,15.53
2022-07-31T02:23:46.085Z,14.00
2022-07-31T02:26:13.896Z,13.17
2022-07-31T02:28:42.670Z,13.70
2022-07-31T02:31:11.349Z,13.93
2022-07-31T02:33:38.824Z,11.43
2022-07-31T02:36:07.258Z,13.73
2022-07-31T02:38:34.745Z,12.47
2022-07-31T02:41:04.741Z,13.63
2022-07-31T02:43:32.932Z,13.97
2022-07-31T02:46:00.617Z,14.20
2022-07-31T02:48:28.190Z,15.50
2022-07-31T02:50:55.888Z,12.10
2022-07-31T02:53:23.106Z,14.30
2022-07-31T02:55:51.295Z,12.73
2022-07-31T02:58:18.419Z,15.57
2022-07-31T03:00:46.016Z,11.83
2022-07-31T03:03:13.440Z,13.53
2022-07-31T03:05:40.603Z,14.83
2022-07-31T03:08:07.742Z,12.60
2022-07-31T03:10:34.873Z,14.37
2022-07-31T03:13:03.664Z,13.57
2022-07-31T03:15:31.377Z,17.23
2022-07-31T03:17:59.339Z,12.97
2022-07-31T03:20:27.569Z,12.20
2022-07-31T03:22:54.779Z,14.67
2022-07-31T03:25:22.387Z,15.60
2022-07-31T03:27:55.671Z,12.20
2022-07-31T03:30:27.571Z,14.90
2022-07-31T03:32:55.623Z,13.87
2022-07-31T03:35:23.239Z,15.03
2022-07-31T03:37:50.673Z,14.40
2022-07-31T03:40:17.875Z,15.10
2022-07-31T03:42:45.119Z,13.33
2022-07-31T03:45:13.070Z,12.30
2022-07-31T03:47:40.262Z,12.97
2022-07-31T03:50:08.609Z,13.87
2022-07-31T03:52:36.273Z,13.50
2022-07-31T03:55:03.701Z,11.70
2022-07-31T03:57:34.339Z,15.63
2022-07-31T04:00:02.467Z,14.63
2022-07-31T04:02:30.419Z,13.53
2022-07-31T04:04:59.521Z,11.93
2022-07-31T04:07:26.679Z,13.17
2022-07-31T04:09:54.079Z,13.53
2022-07-31T04:12:21.264Z,11.70
2022-07-31T04:14:48.571Z,11.67
2022-07-31T04:17:15.857Z,11.10
2022-07-31T04:19:43.004Z,12.77
2022-07-31T04:22:10.160Z,12.97
2022-07-31T04:24:37.344Z,11.17
2022-07-31T04:27:08.089Z,11.77
2022-07-31T04:29:38.587Z,11.23
2022-07-31T04:32:06.223Z,14.30
2022-07-31T04:34:33.576Z,13.47
2022-07-31T04:37:00.766Z,13.83
2022-07-31T04:39:27.959Z,13.47
2022-07-31T04:41:56.116Z,13.13
2022-07-31T04:44:24.035Z,12.90
2022-07-31T04:46:51.223Z,13.13
2022-07-31T04:49:18.437Z,11.20
2022-07-31T04:51:45.659Z,12.00
2022-07-31T04:54:12.805Z,10.90
2022-07-31T04:56:42.740Z,14.13
2022-07-31T04:59:11.365Z,12.47
2022-07-31T05:01:39.452Z,10.27
2022-07-31T05:04:07.363Z,10.07
2022-07-31T05:06:35.509Z,10.67
2022-07-31T05:09:08.132Z,10.13
2022-07-31T05:11:36.824Z,10.27
2022-07-31T05:14:05.008Z,11.73
2022-07-31T05:16:32.427Z,11.03
2022-07-31T05:18:59.984Z,13.37
2022-07-31T05:21:27.406Z,9.57
2022-07-31T05:23:55.581Z,11.77
2022-07-31T05:26:22.914Z,13.90
2022-07-31T05:28:52.364Z,12.37
2022-07-31T05:31:22.843Z,13.27
2022-07-31T05:33:51.270Z,13.47
2022-07-31T05:36:19.275Z,12.37
2022-07-31T05:38:46.769Z,11.27
2022-07-31T05:41:14.526Z,13.13
2022-07-31T05:43:41.683Z,11.10
2022-07-31T05:46:08.985Z,14.18
2022-07-31T05:48:36.169Z,11.05
2022-07-31T05:51:05.611Z,12.40
2022-07-31T05:53:33.009Z,12.48
2022-07-31T05:56:00.212Z,13.75
2022-07-31T05:58:27.380Z,10.73
2022-07-31T06:00:54.628Z,10.70
2022-07-31T06:03:25.145Z,10.73
2022-07-31T06:05:52.595Z,10.60
2022-07-31T06:08:19.910Z,10.25
2022-07-31T06:10:47.018Z,14.25
2022-07-31T06:13:14.750Z,8.85
2022-07-31T06:15:49.096Z,9.52
2022-07-31T06:18:16.719Z,9.18
2022-07-31T06:20:44.055Z,11.10
2022-07-31T06:23:14.660Z,10.15
2022-07-31T06:25:50.525Z,11.40
2022-07-31T06:28:17.652Z,10.13
2022-07-31T06:30:44.773Z,8.73
2022-07-31T06:33:16.645Z,8.98
2022-07-31T06:35:58.994Z,8.35
2022-07-31T06:38:26.264Z,10.07
2022-07-31T06:40:53.381Z,8.13
2022-07-31T06:43:20.512Z,8.82
2022-07-31T06:45:52.047Z,7.57
2022-07-31T06:48:19.496Z,7.65
2022-07-31T06:50:48.097Z,7.50
2022-07-31T06:53:15.214Z,8.30
2022-07-31T06:55:44.048Z,8.88
2022-07-31T06:58:12.041Z,7.72
2022-07-31T07:00:39.187Z,8.52
2022-07-31T07:03:06.297Z,7.93
2022-07-31T07:05:33.440Z,9.65
2022-07-31T07:08:00.591Z,7.78
2022-07-31T07:10:27.735Z,8.43
2022-07-31T07:12:54.878Z,10.88
2022-07-31T07:15:22.018Z,10.02
2022-07-31T07:17:49.137Z,8.85
2022-07-31T07:20:16.271Z,9.10
2022-07-31T07:22:43.384Z,11.68
2022-07-31T07:25:12.555Z,11.40
2022-07-31T07:27:39.678Z,10.00
2022-07-31T07:30:07.191Z,9.60
2022-07-31T07:32:34.383Z,8.50
2022-07-31T07:35:01.499Z,9.15
2022-07-31T07:37:28.954Z,9.18
2022-07-31T07:39:56.264Z,9.88
2022-07-31T07:42:23.591Z,8.73
2022-07-31T07:44:50.726Z,9.60
2022-07-31T07:47:17.915Z,9.55
2022-07-31T07:49:45.215Z,7.32
2022-07-31T07:52:12.704Z,9.23
2022-07-31T07:54:40.533Z,8.43
2022-07-31T07:57:07.670Z,9.20
2022-07-31T07:59:34.833Z,6.88
2022-07-31T08:02:02.525Z,9.98
2022-07-31T08:04:29.893Z,8.38
2022-07-31T08:06:57.182Z,12.93
2022-07-31T08:09:24.486Z,8.88
2022-07-31T08:11:51.625Z,11.93
2022-07-31T08:14:18.730Z,10.02
2022-07-31T08:16:45.859Z,7.70
2022-07-31T08:19:13.029Z,7.70
2022-07-31T08:21:40.222Z,8.93
2022-07-31T08:24:07.574Z,7.88
2022-07-31T08:26:53.619Z,9.68
2022-07-31T08:29:27.293Z,9.73
2022-07-31T08:31:55.255Z,9.98
2022-07-31T08:34:31.223Z,11.25
2022-07-31T08:37:50.271Z,11.52
2022-07-31T08:39:49.215Z,9.93
2022-07-31T08:42:16.588Z,9.75
2022-07-31T08:44:44.694Z,8.35
2022-07-31T08:47:15.690Z,8.15
2022-07-31T08:49:44.029Z,8.98
2022-07-31T08:52:12.801Z,10.18
2022-07-31T08:54:43.754Z,10.77
2022-07-31T08:57:12.912Z,9.77
2022-07-31T08:59:43.451Z,11.10
2022-07-31T09:02:11.671Z,9.68
2022-07-31T09:04:39.140Z,8.55
2022-07-31T09:07:06.769Z,8.18
2022-07-31T09:09:45.352Z,9.10
2022-07-31T09:12:33.671Z,7.38
2022-07-31T09:15:01.783Z,8.13
2022-07-31T09:17:32.796Z,8.20
2022-07-31T09:20:00.271Z,6.25
2022-07-31T09:22:29.486Z,10.95
2022-07-31T09:25:07.184Z,6.28
2022-07-31T09:27:34.505Z,7.03
2022-07-31T09:30:09.267Z,6.85
2022-07-31T09:32:36.431Z,8.10
2022-07-31T09:35:11.307Z,6.55
2022-07-31T09:37:39.231Z,6.85
2022-07-31T09:40:07.292Z,6.80
2022-07-31T09:42:55.650Z,5.22
2022-07-31T09:45:24.610Z,6.88
2022-07-31T09:48:08.580Z,5.07
2022-07-31T09:50:40.802Z,6.03
2022-07-31T09:53:07.999Z,7.65
2022-07-31T09:55:35.291Z,4.40
2022-07-31T09:58:03.024Z,6.47
2022-07-31T10:00:30.590Z,5.65
2022-07-31T10:02:57.977Z,6.20
2022-07-31T10:05:25.947Z,5.85
2022-07-31T10:07:54.238Z,4.57
2022-07-31T10:10:23.076Z,6.85
2022-07-31T10:12:51.443Z,6.78
2022-07-31T10:15:19.811Z,5.38
2022-07-31T10:17:48.262Z,6.68
2022-07-31T10:20:21.674Z,5.10
2022-07-31T10:22:50.606Z,4.43
2022-07-31T10:25:20.488Z,6.25
2022-07-31T10:27:48.631Z,4.57
2022-07-31T10:30:16.595Z,4.28
2022-07-31T10:32:44.476Z,6.40
2022-07-31T10:35:12.377Z,6.22
2022-07-31T10:37:41.698Z,3.75
2022-07-31T10:40:29.992Z,5.05
2022-07-31T10:43:15.917Z,6.07
2022-07-31T10:45:46.976Z,6.70
2022-07-31T10:48:14.133Z,4.75
2022-07-31T10:50:41.447Z,6.28
2022-07-31T10:53:09.892Z,6.47
2022-07-31T10:55:37.138Z,5.40
2022-07-31T10:58:10.964Z,4.32
2022-07-31T11:00:38.649Z,4.65
2022-07-31T11:03:14.832Z,6.43
2022-07-31T11:06:02.060Z,6.68
2022-07-31T11:08:40.884Z,4.80
2022-07-31T11:11:08.024Z,5.95
2022-07-31T11:13:45.591Z,6.63
2022-07-31T11:16:12.795Z,6.70
2022-07-31T11:18:39.990Z,5.65
2022-07-31T11:21:35.929Z,5.90
2022-07-31T11:24:03.977Z,5.60
2022-07-31T11:26:41.088Z,5.15
2022-07-31T11:30:01.808Z,5.43
2022-07-31T11:32:01.695Z,8.32
2022-07-31T11:34:28.914Z,5.30
2022-07-31T11:36:56.144Z,5.07
2022-07-31T11:39:36.321Z,5.45
2022-07-31T11:42:04.991Z,5.93
2022-07-31T11:44:34.936Z,7.03
2022-07-31T11:47:02.586Z,4.63
2022-07-31T11:49:39.183Z,6.10
2022-07-31T11:52:31.011Z,5.45
2022-07-31T11:55:08.886Z,4.35
2022-07-31T11:57:52.195Z,6.57
2022-07-31T12:00:27.328Z,5.53
2022-07-31T12:02:56.898Z,6.57
2022-07-31T12:05:37.802Z,4.32
2022-07-31T12:08:05.807Z,7.93
2022-07-31T12:10:33.068Z,5.20
2022-07-31T12:13:00.232Z,9.30
2022-07-31T12:15:27.361Z,5.82
2022-07-31T12:18:05.341Z,7.05
2022-07-31T12:20:37.208Z,6.03
2022-07-31T12:23:05.706Z,5.95
2022-07-31T12:25:42.886Z,4.82
2022-07-31T12:28:10.447Z,4.97
2022-07-31T12:30:37.715Z,5.43
2022-07-31T12:33:05.406Z,4.22
2022-07-31T12:35:55.014Z,7.53
2022-07-31T12:38:40.973Z,6.53
2022-07-31T12:41:13.481Z,8.90
2022-07-31T12:43:50.172Z,5.22
2022-07-31T12:46:19.373Z,5.80
2022-07-31T12:48:46.492Z,4.93
2022-07-31T12:51:13.824Z,6.78
2022-07-31T12:53:40.962Z,4.70
2022-07-31T12:56:11.898Z,6.60
2022-07-31T12:58:39.056Z,6.70
2022-07-31T13:01:06.190Z,5.32
2022-07-31T13:03:45.383Z,6.65
2022-07-31T13:06:13.403Z,4.93
2022-07-31T13:08:40.726Z,4.63
2022-07-31T13:11:07.877Z,7.32
2022-07-31T13:13:35.047Z,6.60
2022-07-31T13:16:02.213Z,5.45
2022-07-31T13:18:30.104Z,4.32
2022-07-31T13:20:57.281Z,7.03
2022-07-31T13:23:24.572Z,5.20
2022-07-31T13:25:51.765Z,6.55
2022-07-31T13:28:18.892Z,9.98
2022-07-31T13:30:46.652Z,6.20
2022-07-31T13:33:13.805Z,5.63
2022-07-31T13:35:41.019Z,5.18
2022-07-31T13:38:08.176Z,5.78
2022-07-31T13:40:54.259Z,4.95
2022-07-31T13:43:21.391Z,5.47
2022-07-31T13:45:50.405Z,5.75
2022-07-31T13:48:17.581Z,7.57
2022-07-31T13:50:44.743Z,6.00
2022-07-31T13:53:11.974Z,5.97
2022-07-31T13:55:39.160Z,6.28
2022-07-31T13:58:06.406Z,4.53
2022-07-31T14:00:33.511Z,6.43
2022-07-31T14:03:00.781Z,5.38
2022-07-31T14:05:28.635Z,6.20
2022-07-31T14:07:56.280Z,8.48
2022-07-31T14:10:43.465Z,4.97
2022-07-31T14:13:16.013Z,5.70
2022-07-31T14:15:43.259Z,4.88
2022-07-31T14:18:10.449Z,4.03
2022-07-31T14:20:37.694Z,5.22
2022-07-31T14:23:07.839Z,5.18
2022-07-31T14:25:38.518Z,4.63
2022-07-31T14:28:06.112Z,5.43
2022-07-31T14:30:33.939Z,7.53
2022-07-31T14:33:01.931Z,7.88
2022-07-31T14:35:29.104Z,3.70
2022-07-31T14:37:56.279Z,5.65
2022-07-31T14:40:23.485Z,6.78
2022-07-31T14:42:50.610Z,6.93
2022-07-31T14:45:17.739Z,4.63
2022-07-31T14:47:46.341Z,4.25
2022-07-31T14:50:19.265Z,4.88
2022-07-31T14:52:47.056Z,7.95
2022-07-31T14:55:14.266Z,5.70
2022-07-31T14:57:41.926Z,6.22
2022-07-31T15:00:12.991Z,4.50
2022-07-31T15:02:41.131Z,5.75
2022-07-31T15:06:44.464Z,6.35
2022-07-31T15:07:55.775Z,6.43
2022-07-31T15:10:22.940Z,5.75
2022-07-31T15:12:51.424Z,5.05
2022-07-31T15:15:18.650Z,6.97
2022-07-31T15:17:45.821Z,5.78
2022-07-31T15:20:13.325Z,5.03
2022-07-31T15:22:40.477Z,6.90
2022-07-31T15:25:08.625Z,6.35
2022-07-31T15:27:35.733Z,5.60
2022-07-31T15:30:06.682Z,4.63
2022-07-31T15:32:38.297Z,5.78
2022-07-31T15:35:06.287Z,7.15
2022-07-31T15:37:37.323Z,4.50
2022-07-31T15:40:06.170Z,6.07
2022-07-31T15:42:33.579Z,5.53
2022-07-31T15:45:00.928Z,9.93
2022-07-31T15:47:28.108Z,6.70
2022-07-31T15:49:55.258Z,5.80
2022-07-31T15:52:22.473Z,4.28
2022-07-31T15:54:51.524Z,6.57
2022-07-31T15:57:19.815Z,7.55
2022-07-31T15:59:46.953Z,7.25
2022-07-31T16:02:14.091Z,5.72
2022-07-31T16:04:53.331Z,4.85
2022-07-31T16:08:33.941Z,4.78
2022-07-31T16:10:16.511Z,7.60
2022-07-31T16:12:45.813Z,5.00
2022-07-31T16:15:13.496Z,4.22
2022-07-31T16:17:41.072Z,7.28
2022-07-31T16:20:09.885Z,5.95
2022-07-31T16:22:37.718Z,4.78
2022-07-31T16:25:05.596Z,5.97
2022-07-31T16:27:32.770Z,7.15
2022-07-31T16:30:01.976Z,6.05
2022-07-31T16:32:29.736Z,5.20
2022-07-31T16:35:00.540Z,5.78
2022-07-31T16:37:50.361Z,5.13
2022-07-31T16:40:28.719Z,4.88
2022-07-31T16:42:56.701Z,5.47
2022-07-31T16:45:24.025Z,5.13
2022-07-31T16:47:52.162Z,6.43
2022-07-31T16:50:19.879Z,8.98
2022-07-31T16:52:50.111Z,6.35
2022-07-31T16:55:20.108Z,9.57
2022-07-31T16:57:47.236Z,8.93
2022-07-31T17:00:14.562Z,5.82
2022-07-31T17:02:41.720Z,9.93
2022-07-31T17:05:09.091Z,6.30
2022-07-31T17:07:36.855Z,6.22
2022-07-31T17:10:04.217Z,5.53
2022-07-31T17:12:31.404Z,5.55
2022-07-31T17:14:58.518Z,6.18
2022-07-31T17:17:25.661Z,5.95
2022-07-31T17:19:55.275Z,8.02
2022-07-31T17:22:22.602Z,6.30
2022-07-31T17:24:51.815Z,9.25
2022-07-31T17:27:19.569Z,4.68
2022-07-31T17:29:46.779Z,5.05
2022-07-31T17:32:13.941Z,7.15
2022-07-31T17:34:44.922Z,4.35
2022-07-31T17:37:12.125Z,5.95
2022-07-31T17:39:39.311Z,8.15
2022-07-31T17:42:06.507Z,6.78
2022-07-31T17:44:36.534Z,6.72
2022-07-31T17:47:05.210Z,7.90
2022-07-31T17:49:32.651Z,7.25
2022-07-31T17:52:08.132Z,5.05
2022-07-31T17:54:35.760Z,6.50
2022-07-31T17:57:02.933Z,5.28
2022-07-31T17:59:30.443Z,6.07
2022-07-31T18:02:03.165Z,6.35
2022-07-31T18:04:32.003Z,4.90
2022-07-31T18:06:59.769Z,7.07
2022-07-31T18:09:27.035Z,7.35
2022-07-31T18:11:54.320Z,9.02
2022-07-31T18:14:24.708Z,6.82
2022-07-31T18:16:52.337Z,5.88
2022-07-31T18:19:21.352Z,5.10
2022-07-31T18:21:48.601Z,4.15
2022-07-31T18:24:15.767Z,5.78
2022-07-31T18:26:42.911Z,9.00
2022-07-31T18:29:10.100Z,7.25
2022-07-31T18:31:37.236Z,5.00
2022-07-31T18:34:05.034Z,7.22
2022-07-31T18:36:32.799Z,7.25
2022-07-31T18:39:00.022Z,5.68
2022-07-31T18:41:27.765Z,6.20
2022-07-31T18:43:54.974Z,7.05
2022-07-31T18:46:23.640Z,6.85
2022-07-31T18:48:55.498Z,5.50
2022-07-31T18:51:23.646Z,6.82
2022-07-31T18:53:51.002Z,8.38
2022-07-31T18:56:18.434Z,9.27
2022-07-31T18:58:45.823Z,9.20
2022-07-31T19:01:12.981Z,6.05
2022-07-31T19:03:40.147Z,10.45
2022-07-31T19:06:07.271Z,8.48
2022-07-31T19:08:34.499Z,6.47
2022-07-31T19:11:01.642Z,6.13
2022-07-31T19:13:29.265Z,8.48
2022-07-31T19:15:56.498Z,7.63
2022-07-31T19:18:26.371Z,6.20
2022-07-31T19:21:16.632Z,8.13
2022-07-31T19:23:43.545Z,5.85
2022-07-31T19:26:10.681Z,6.82
2022-07-31T19:28:39.538Z,6.10
2022-07-31T19:31:06.782Z,6.38
2022-07-31T19:33:33.933Z,6.60
2022-07-31T19:36:02.597Z,5.75
2022-07-31T19:38:31.006Z,7.53
2022-07-31T19:40:58.174Z,6.97
2022-07-31T19:43:25.488Z,9.32
2022-07-31T19:46:10.740Z,7.40
2022-07-31T19:48:43.428Z,7.05
2022-07-31T19:51:11.420Z,7.32
2022-07-31T19:53:39.304Z,7.88
2022-07-31T19:56:07.075Z,7.32
2022-07-31T19:58:35.158Z,10.93
2022-07-31T20:01:03.092Z,7.13
2022-07-31T20:03:30.406Z,5.47
2022-07-31T20:05:58.223Z,7.80
2022-07-31T20:08:25.372Z,11.05
2022-07-31T20:10:52.904Z,8.23
2022-07-31T20:13:20.214Z,7.60
2022-07-31T20:15:52.593Z,8.00
2022-07-31T20:18:27.850Z,8.65
2022-07-31T20:21:07.250Z,8.45
2022-07-31T20:23:37.165Z,7.88
2022-07-31T20:26:05.060Z,6.63
2022-07-31T20:28:32.218Z,8.35
2022-07-31T20:30:59.383Z,7.93
2022-07-31T20:33:26.569Z,6.65
2022-07-31T20:35:53.743Z,6.47
2022-07-31T20:38:24.585Z,8.95
2022-07-31T20:40:55.355Z,7.60
2022-07-31T20:43:24.059Z,9.90
2022-07-31T20:45:51.782Z,7.40
2022-07-31T20:48:19.150Z,7.03
2022-07-31T20:50:48.235Z,7.53
2022-07-31T20:53:16.278Z,5.95
2022-07-31T20:55:47.068Z,7.10
2022-07-31T20:58:14.451Z,6.40
2022-07-31T21:00:41.861Z,6.70
2022-07-31T21:03:09.117Z,8.65
2022-07-31T21:05:36.246Z,6.25
2022-07-31T21:08:03.498Z,7.38
2022-07-31T21:10:30.613Z,6.50
2022-07-31T21:12:58.196Z,6.45
2022-07-31T21:15:44.075Z,7.43
2022-07-31T21:18:16.837Z,8.57
2022-07-31T21:20:52.341Z,8.65
2022-07-31T21:23:23.879Z,7.38
2022-07-31T21:25:52.197Z,7.70
2022-07-31T21:28:19.460Z,8.57
2022-07-31T21:30:46.714Z,9.07
2022-07-31T21:33:13.952Z,8.88
2022-07-31T21:35:41.311Z,9.90
2022-07-31T21:38:12.297Z,7.75
2022-07-31T21:40:40.487Z,7.85
2022-07-31T21:43:08.042Z,5.68
2022-07-31T21:45:55.383Z,7.07
2022-07-31T21:48:23.207Z,8.05
2022-07-31T21:50:50.508Z,7.97
2022-07-31T21:53:17.652Z,6.85
2022-07-31T21:55:44.992Z,7.93
2022-07-31T21:58:12.241Z,7.82
2022-07-31T22:00:39.557Z,8.30
2022-07-31T22:03:06.749Z,8.00
2022-07-31T22:05:52.586Z,6.13
2022-07-31T22:08:19.897Z,7.53
2022-07-31T22:10:47.616Z,7.63
2022-07-31T22:13:14.768Z,5.88
2022-07-31T22:15:59.371Z,7.35
2022-07-31T22:18:32.115Z,8.50
2022-07-31T22:20:59.974Z,6.53
2022-07-31T22:23:28.355Z,7.85
2022-07-31T22:25:56.009Z,6.78
2022-07-31T22:28:24.527Z,6.50
2022-07-31T22:30:52.567Z,8.27
2022-07-31T22:33:20.271Z,7.55
2022-07-31T22:35:58.855Z,5.72
2022-07-31T22:38:28.095Z,7.15
2022-07-31T22:40:55.254Z,8.45
2022-07-31T22:44:10.424Z,6.38
2022-07-31T22:46:11.888Z,7.57
2022-07-31T22:48:40.691Z,9.38
2022-07-31T22:51:08.209Z,6.75
2022-07-31T22:53:36.119Z,8.25
2022-07-31T22:56:03.277Z,7.78
2022-07-31T22:58:30.517Z,8.23
2022-07-31T23:00:57.731Z,7.57
2022-07-31T23:03:24.914Z,8.05
2022-07-31T23:06:03.525Z,7.13
2022-07-31T23:08:39.146Z,7.28
2022-07-31T23:11:06.265Z,7.80
2022-07-31T23:13:33.376Z,7.22
2022-07-31T23:16:00.512Z,8.75
2022-07-31T23:18:27.733Z,7.32
2022-07-31T23:20:54.883Z,6.45
2022-07-31T23:23:22.005Z,7.55
2022-07-31T23:25:49.209Z,7.55
2022-07-31T23:28:16.338Z,8.82
2022-07-31T23:30:43.480Z,9.73
2022-07-31T23:33:12.411Z,7.63
2022-07-31T23:35:39.546Z,7.80
2022-07-31T23:38:06.674Z,8.70
2022-07-31T23:40:33.816Z,9.00
2022-07-31T23:43:00.929Z,6.93
2022-07-31T23:45:28.058Z,7.22
2022-07-31T23:47:55.700Z,6.85
2022-07-31T23:50:26.322Z,7.28
2022-07-31T23:52:53.466Z,8.82
2022-07-31T23:55:20.627Z,6.55
2022-07-31T23:57:47.780Z,7.03
